Time;durP1;ratioP1;P1;durP2;ratioP2;P2;SDS_P1;SDS_P2;PMS_P1;PMS_P2;Temp;Humidity;BMP_temperature;BMP_pressure;BME280_temperature;BME280_humidity;BME280_pressure;Samples;Min_cycle;Max_cycle;Signal;HPM_P1;HPM_P2
2021/01/07 00:00:44;;;;;;;;;;;;;;;;;;2055989;28;44319;-64
2021/01/07 00:01:45;;;;;;;;;;;;;;;;;;2047601;28;44200;-64
2021/01/07 00:02:46;;;;;;;;;;;;;;;;;;2055989;28;44184;-65
2021/01/07 00:03:48;;;;;;;;;;;;;;;;;;2056263;28;44310;-64
2021/01/07 00:04:49;;;;;;;;;;;;;;;;;;2056821;28;42688;-64
2021/01/07 00:05:50;;;;;;;;;;;;;;;;;;2055588;28;48428;-65
2021/01/07 00:06:51;;;;;;;;;;;;;;;;;;2055849;28;44081;-64
2021/01/07 00:07:55;;;;;;;;;;;;;;;;;;2055672;28;43133;-65
2021/01/07 00:08:56;;;;;;;;;;;;;;;;;;2055759;28;44228;-64
2021/01/07 00:09:58;;;;;;;;;;;;;;;;;;2055338;28;45894;-64
2021/01/07 00:10:59;;;;;;;;;;;;;;;;;;2055607;28;44232;-64
2021/01/07 00:12:00;;;;;;;;;;;;;;;;;;2055747;28;44154;-64
2021/01/07 00:13:01;;;;;;;;;;;;;;;;;;2056215;28;43639;-64
2021/01/07 00:14:02;;;;;;;;;;;;;;;;;;2055926;28;45794;-63
2021/01/07 00:15:04;;;;;;;;;;;;;;;;;;2057222;28;43974;-64
2021/01/07 00:16:05;;;;;;;;;;;;;;;;;;2056507;28;44385;-65
2021/01/07 00:17:06;;;;;;;;;;;;;;;;;;2056572;28;45681;-64
2021/01/07 00:18:07;;;;;;;;;;;;;;;;;;2055964;28;45687;-65
2021/01/07 00:19:08;;;;;;;;;;;;;;;;;;2055979;28;44377;-65
2021/01/07 00:20:11;;;;;;;;;;;;;;;;;;2055522;28;45700;-64
2021/01/07 00:21:12;;;;;;;;;;;;;;;;;;2056215;28;43975;-63
2021/01/07 00:22:13;;;;;;;;;;;;;;;;;;2055488;28;44428;-64
2021/01/07 00:23:14;;;;;;;;;;;;;;;;;;2056610;28;45377;-64
2021/01/07 00:24:15;;;;;;;;;;;;;;;;;;2055531;28;42969;-63
2021/01/07 00:25:16;;;;;;;;;;;;;;;;;;2055693;28;44387;-63
2021/01/07 00:26:17;;;;;;;;;;;;;;;;;;2056174;28;42983;-63
2021/01/07 00:27:19;;;;;;;;;;;;;;;;;;2056203;28;44801;-63
2021/01/07 00:28:20;;;;;;;;;;;;;;;;;;2055047;28;43786;-63
2021/01/07 00:29:21;;;;;;;;;;;;;;;;;;2055858;28;46043;-64
2021/01/07 00:30:22;;;;;;;;;;;;;;;;;;2056115;28;46043;-64
2021/01/07 00:31:23;;;;;;;;;;;;;;;;;;2055870;28;44850;-64
2021/01/07 00:32:24;;;;;;;;;;;;;;;;;;2055664;28;44902;-64
2021/01/07 00:33:25;;;;;;;;;;;;;;;;;;2056061;28;44747;-63
2021/01/07 00:34:26;;;;;;;;;;;;;;;;;;2055709;28;46045;-64
2021/01/07 00:35:27;;;;;;;;;;;;;;;;;;2055874;28;43571;-64
2021/01/07 00:36:28;;;;;;;;;;;;;;;;;;2056510;28;43871;-64
2021/01/07 00:37:29;;;;;;;;;;;;;;;;;;2056296;28;44836;-64
2021/01/07 00:38:30;;;;;;;;;;;;;;;;;;2055767;28;46068;-64
2021/01/07 00:39:32;;;;;;;;;;;;;;;;;;2064513;28;47233;-65
2021/01/07 00:40:33;;;;;;;;;;;;;;;;;;2064964;28;44795;-64
2021/01/07 00:41:34;;;;;;;;;;;;;;;;;;2057512;28;44872;-64
2021/01/07 00:42:35;;;;;;;;;;;;;;;;;;2056753;28;44886;-64
2021/01/07 00:43:36;;;;;;;;;;;;;;;;;;2056843;28;46087;-64
2021/01/07 00:44:37;;;;;;;;;;;;;;;;;;2057531;28;44919;-64
2021/01/07 00:45:38;;;;;;;;;;;;;;;;;;2056895;28;44878;-64
2021/01/07 00:46:39;;;;;;;;;;;;;;;;;;2056431;28;44906;-64
2021/01/07 00:47:40;;;;;;;;;;;;;;;;;;2057000;28;44784;-64
2021/01/07 00:48:41;;;;;;;;;;;;;;;;;;2057401;28;45760;-64
2021/01/07 00:49:44;;;;;;;;;;;;;;;;;;2057170;28;44210;-64
2021/01/07 00:50:45;;;;;;;;;;;;;;;;;;2056538;28;44293;-64
2021/01/07 00:51:46;;;;;;;;;;;;;;;;;;2056453;28;45594;-64
2021/01/07 00:52:47;;;;;;;;;;;;;;;;;;2056716;28;44314;-64
2021/01/07 00:53:48;;;;;;;;;;;;;;;;;;2056662;28;45436;-64
2021/01/07 00:54:49;;;;;;;;;;;;;;;;;;2057439;28;46308;-63
2021/01/07 00:55:51;;;;;;;;;;;;;;;;;;2057387;28;45078;-64
2021/01/07 00:56:52;;;;;;;;;;;;;;;;;;2057259;28;45306;-63
2021/01/07 00:57:53;;;;;;;;;;;;;;;;;;2056602;28;44325;-64
2021/01/07 00:58:54;;;;;;;;;;;;;;;;;;2056198;28;45201;-63
2021/01/07 00:59:55;;;;;;;;;;;;;;;;;;2055856;28;44342;-64
2021/01/07 01:00:56;;;;;;;;;;;;;;;;;;2056576;28;45381;-64
2021/01/07 01:01:57;;;;;;;;;;;;;;;;;;2055921;28;44355;-65
2021/01/07 01:02:58;;;;;;;;;;;;;;;;;;2056393;28;45503;-64
2021/01/07 01:03:59;;;;;;;;;;;;;;;;;;2056643;28;43798;-63
2021/01/07 01:05:00;;;;;;;;;;;;;;;;;;2056468;28;44211;-64
2021/01/07 01:06:01;;;;;;;;;;;;;;;;;;2056087;28;44199;-63
2021/01/07 01:07:02;;;;;;;;;;;;;;;;;;2056810;28;42765;-63
2021/01/07 01:08:03;;;;;;;;;;;;;;;;;;2056629;28;44147;-63
2021/01/07 01:09:05;;;;;;;;;;;;;;;;;;2056578;28;45388;-63
2021/01/07 01:10:08;;;;;;;;;;;;;;;;;;2056280;28;44307;-63
2021/01/07 01:11:09;;;;;;;;;;;;;;;;;;2056194;28;45421;-63
2021/01/07 01:12:10;;;;;;;;;;;;;;;;;;2056076;28;44602;-63
2021/01/07 01:13:11;;;;;;;;;;;;;;;;;;2056291;28;44067;-63
2021/01/07 01:14:13;;;;;;;;;;;;;;;;;;2055955;28;45317;-63
2021/01/07 01:15:15;;;;;;;;;;;;;;;;;;2056914;28;45665;-63
2021/01/07 01:16:16;;;;;;;;;;;;;;;;;;2056271;28;42905;-63
2021/01/07 01:17:17;;;;;;;;;;;;;;;;;;2056970;28;45558;-63
2021/01/07 01:18:18;;;;;;;;;;;;;;;;;;2056268;28;44378;-63
2021/01/07 01:19:19;;;;;;;;;;;;;;;;;;2056618;28;44164;-64
2021/01/07 01:20:20;;;;;;;;;;;;;;;;;;2064358;28;42996;-63
2021/01/07 01:21:21;;;;;;;;;;;;;;;;;;2064303;28;45716;-64
2021/01/07 01:22:22;;;;;;;;;;;;;;;;;;2056840;28;44315;-64
2021/01/07 01:23:23;;;;;;;;;;;;;;;;;;2057475;28;44218;-64
2021/01/07 01:24:25;;;;;;;;;;;;;;;;;;2057339;28;44356;-64
2021/01/07 01:25:27;;;;;;;;;;;;;;;;;;2057358;28;44285;-64
2021/01/07 01:26:28;;;;;;;;;;;;;;;;;;2055814;28;44522;-65
2021/01/07 01:27:30;;;;;;;;;;;;;;;;;;2056070;28;43914;-64
2021/01/07 01:28:31;;;;;;;;;;;;;;;;;;2055636;28;44409;-65
2021/01/07 01:29:32;;;;;;;;;;;;;;;;;;2055819;28;46030;-64
2021/01/07 01:30:33;;;;;;;;;;;;;;;;;;2055765;28;44187;-64
2021/01/07 01:31:40;;;;;;;;;;;;;;;;;;2056848;28;44081;-64
2021/01/07 01:32:41;;;;;;;;;;;;;;;;;;2057812;28;46173;-64
2021/01/07 01:33:43;;;;;;;;;;;;;;;;;;2057618;28;44877;-64
2021/01/07 01:34:44;;;;;;;;;;;;;;;;;;2057567;28;44890;-64
2021/01/07 01:35:44;;;;;;;;;;;;;;;;;;2057826;28;43378;-64
2021/01/07 01:36:46;;;;;;;;;;;;;;;;;;2057423;28;44721;-64
2021/01/07 01:37:47;;;;;;;;;;;;;;;;;;2057241;28;44548;-64
2021/01/07 01:38:48;;;;;;;;;;;;;;;;;;2057204;28;44774;-64
2021/01/07 01:39:49;;;;;;;;;;;;;;;;;;2056395;28;44573;-63
2021/01/07 01:40:50;;;;;;;;;;;;;;;;;;2056275;28;45943;-64
2021/01/07 01:41:51;;;;;;;;;;;;;;;;;;2055851;28;46021;-63
2021/01/07 01:42:52;;;;;;;;;;;;;;;;;;2056197;28;43602;-64
2021/01/07 01:43:53;;;;;;;;;;;;;;;;;;2058796;28;46169;-64
2021/01/07 01:44:54;;;;;;;;;;;;;;;;;;2065415;28;46110;-64
2021/01/07 01:45:56;;;;;;;;;;;;;;;;;;2064758;28;44876;-65
2021/01/07 01:46:57;;;;;;;;;;;;;;;;;;2064218;28;45831;-65
2021/01/07 01:47:58;;;;;;;;;;;;;;;;;;2064236;28;47115;-65
2021/01/07 01:49:00;;;;;;;;;;;;;;;;;;2063898;28;46067;-65
2021/01/07 01:50:01;;;;;;;;;;;;;;;;;;2055648;28;44760;-65
2021/01/07 01:51:02;;;;;;;;;;;;;;;;;;2063064;28;44415;-65
2021/01/07 01:52:03;;;;;;;;;;;;;;;;;;2063600;28;46034;-65
2021/01/07 01:53:05;;;;;;;;;;;;;;;;;;2064053;28;46152;-65
2021/01/07 01:54:06;;;;;;;;;;;;;;;;;;2063953;28;44436;-65
2021/01/07 01:55:07;;;;;;;;;;;;;;;;;;2064679;28;43782;-65
2021/01/07 01:56:08;;;;;;;;;;;;;;;;;;2063851;28;45590;-64
2021/01/07 01:57:11;;;;;;;;;;;;;;;;;;2064140;28;43874;-64
2021/01/07 01:58:14;;;;;;;;;;;;;;;;;;2063802;28;45590;-64
2021/01/07 01:59:18;;;;;;;;;;;;;;;;;;2063833;28;44315;-64
2021/01/07 02:00:20;;;;;;;;;;;;;;;;;;2063942;28;45179;-64
2021/01/07 02:01:21;;;;;;;;;;;;;;;;;;2064656;28;44301;-64
2021/01/07 02:02:25;;;;;;;;;;;;;;;;;;2064113;28;44098;-64
2021/01/07 02:03:26;;;;;;;;;;;;;;;;;;2058192;28;45834;-64
2021/01/07 02:04:27;;;;;;;;;;;;;;;;;;2056300;28;45187;-63
2021/01/07 02:05:28;;;;;;;;;;;;;;;;;;2056741;28;43186;-64
2021/01/07 02:06:31;;;;;;;;;;;;;;;;;;2056446;28;45474;-64
2021/01/07 02:07:32;;;;;;;;;;;;;;;;;;2056776;28;44220;-64
2021/01/07 02:08:35;;;;;;;;;;;;;;;;;;2056382;28;45608;-64
2021/01/07 02:09:37;;;;;;;;;;;;;;;;;;2056241;28;43909;-64
2021/01/07 02:10:38;;;;;;;;;;;;;;;;;;2056516;28;41414;-64
2021/01/07 02:11:39;;;;;;;;;;;;;;;;;;2048862;28;43984;-63
2021/01/07 02:12:46;;;;;;;;;;;;;;;;;;2062451;28;44400;-64
2021/01/07 02:13:48;;;;;;;;;;;;;;;;;;2072269;28;44519;-64
2021/01/07 02:14:49;;;;;;;;;;;;;;;;;;2065230;28;44341;-64
2021/01/07 02:15:51;;;;;;;;;;;;;;;;;;2065709;28;43383;-64
2021/01/07 02:16:53;;;;;;;;;;;;;;;;;;2065332;28;43978;-63
2021/01/07 02:17:57;;;;;;;;;;;;;;;;;;2065153;28;46570;-64
2021/01/07 02:18:58;;;;;;;;;;;;;;;;;;2064580;28;44380;-64
2021/01/07 02:19:59;;;;;;;;;;;;;;;;;;2065598;28;44155;-64
2021/01/07 02:21:01;;;;;;;;;;;;;;;;;;2064598;28;44370;-64
2021/01/07 02:22:02;;;;;;;;;;;;;;;;;;2064826;28;45623;-64
2021/01/07 02:23:04;;;;;;;;;;;;;;;;;;2065302;28;43458;-64
2021/01/07 02:24:05;;;;;;;;;;;;;;;;;;2065584;28;46093;-64
2021/01/07 02:25:06;;;;;;;;;;;;;;;;;;2064123;28;45733;-64
2021/01/07 02:26:07;;;;;;;;;;;;;;;;;;2056788;28;44386;-64
2021/01/07 02:27:09;;;;;;;;;;;;;;;;;;2064659;28;44139;-64
2021/01/07 02:28:10;;;;;;;;;;;;;;;;;;2065376;28;44430;-64
2021/01/07 02:29:12;;;;;;;;;;;;;;;;;;2064243;28;43114;-64
2021/01/07 02:30:13;;;;;;;;;;;;;;;;;;2064788;28;45602;-64
2021/01/07 02:31:14;;;;;;;;;;;;;;;;;;2064656;28;45609;-64
2021/01/07 02:32:15;;;;;;;;;;;;;;;;;;2064685;28;43669;-64
2021/01/07 02:33:16;;;;;;;;;;;;;;;;;;2064549;28;45685;-63
2021/01/07 02:34:17;;;;;;;;;;;;;;;;;;2064537;28;45841;-64
2021/01/07 02:35:19;;;;;;;;;;;;;;;;;;2064028;28;48116;-63
2021/01/07 02:36:20;;;;;;;;;;;;;;;;;;2064820;28;42570;-65
2021/01/07 02:37:21;;;;;;;;;;;;;;;;;;2064149;28;44548;-64
2021/01/07 02:38:22;;;;;;;;;;;;;;;;;;2063643;28;44911;-63
2021/01/07 02:39:24;;;;;;;;;;;;;;;;;;2063301;28;46477;-64
2021/01/07 02:40:25;;;;;;;;;;;;;;;;;;2063817;28;41500;-64
2021/01/07 02:41:26;;;;;;;;;;;;;;;;;;2055485;28;43543;-65
2021/01/07 02:42:27;;;;;;;;;;;;;;;;;;2063763;28;44642;-65
2021/01/07 02:43:28;;;;;;;;;;;;;;;;;;2063417;28;46052;-65
2021/01/07 02:44:29;;;;;;;;;;;;;;;;;;2063820;28;44918;-64
2021/01/07 02:45:30;;;;;;;;;;;;;;;;;;2063405;28;45618;-63
2021/01/07 02:46:31;;;;;;;;;;;;;;;;;;2064649;28;44900;-64
2021/01/07 02:47:32;;;;;;;;;;;;;;;;;;2064051;28;43864;-64
2021/01/07 02:48:34;;;;;;;;;;;;;;;;;;2064492;28;46380;-63
2021/01/07 02:49:35;;;;;;;;;;;;;;;;;;2063167;28;46063;-63
2021/01/07 02:50:36;;;;;;;;;;;;;;;;;;2063679;28;45856;-63
2021/01/07 02:51:37;;;;;;;;;;;;;;;;;;2064192;28;46066;-63
2021/01/07 02:52:38;;;;;;;;;;;;;;;;;;2064246;28;44569;-63
2021/01/07 02:53:39;;;;;;;;;;;;;;;;;;2064172;28;44776;-63
2021/01/07 02:54:40;;;;;;;;;;;;;;;;;;2063682;28;44905;-64
2021/01/07 02:55:41;;;;;;;;;;;;;;;;;;2063669;28;44650;-64
2021/01/07 02:56:42;;;;;;;;;;;;;;;;;;2064122;28;43753;-64
2021/01/07 02:57:43;;;;;;;;;;;;;;;;;;2063667;28;44631;-63
2021/01/07 02:58:44;;;;;;;;;;;;;;;;;;2055254;28;45884;-64
2021/01/07 02:59:46;;;;;;;;;;;;;;;;;;2055906;28;45865;-64
2021/01/07 03:00:47;;;;;;;;;;;;;;;;;;2063415;28;42929;-64
2021/01/07 03:01:48;;;;;;;;;;;;;;;;;;2063025;28;47561;-64
2021/01/07 03:02:50;;;;;;;;;;;;;;;;;;2063204;28;44339;-63
2021/01/07 03:03:51;;;;;;;;;;;;;;;;;;2064597;28;44839;-63
2021/01/07 03:04:52;;;;;;;;;;;;;;;;;;2063473;28;45487;-64
2021/01/07 03:05:53;;;;;;;;;;;;;;;;;;2063592;28;44195;-64
2021/01/07 03:06:54;;;;;;;;;;;;;;;;;;2063965;28;44154;-64
2021/01/07 03:07:55;;;;;;;;;;;;;;;;;;2064179;28;44206;-63
2021/01/07 03:08:56;;;;;;;;;;;;;;;;;;2063502;28;46319;-64
2021/01/07 03:09:57;;;;;;;;;;;;;;;;;;2063664;28;45902;-63
2021/01/07 03:10:58;;;;;;;;;;;;;;;;;;2063705;28;43462;-63
2021/01/07 03:12:09;;;;;;;;;;;;;;;;;;2063896;28;45489;-64
2021/01/07 03:13:10;;;;;;;;;;;;;;;;;;2062879;28;45593;-64
2021/01/07 03:14:11;;;;;;;;;;;;;;;;;;2063585;28;46650;-64
2021/01/07 03:15:12;;;;;;;;;;;;;;;;;;2063313;28;44287;-64
2021/01/07 03:16:13;;;;;;;;;;;;;;;;;;2063707;28;44191;-64
2021/01/07 03:17:14;;;;;;;;;;;;;;;;;;2063084;28;43074;-63
2021/01/07 03:18:15;;;;;;;;;;;;;;;;;;2063369;28;42545;-64
2021/01/07 03:19:16;;;;;;;;;;;;;;;;;;2063287;28;43985;-64
2021/01/07 03:20:17;;;;;;;;;;;;;;;;;;2063702;28;43026;-66
2021/01/07 03:21:19;;;;;;;;;;;;;;;;;;2063699;28;47067;-63
2021/01/07 03:22:20;;;;;;;;;;;;;;;;;;2063750;28;44387;-65
2021/01/07 03:23:21;;;;;;;;;;;;;;;;;;2063157;28;45552;-65
2021/01/07 03:24:22;;;;;;;;;;;;;;;;;;2063693;28;44140;-65
2021/01/07 03:25:23;;;;;;;;;;;;;;;;;;2063300;28;45162;-63
2021/01/07 03:26:24;;;;;;;;;;;;;;;;;;2064243;28;45393;-65
2021/01/07 03:27:25;;;;;;;;;;;;;;;;;;2063199;28;45415;-64
2021/01/07 03:28:26;;;;;;;;;;;;;;;;;;2063402;28;44374;-63
2021/01/07 03:29:28;;;;;;;;;;;;;;;;;;2063586;28;44315;-63
2021/01/07 03:30:29;;;;;;;;;;;;;;;;;;2064133;28;44429;-64
2021/01/07 03:31:30;;;;;;;;;;;;;;;;;;2063324;28;42972;-65
2021/01/07 03:32:31;;;;;;;;;;;;;;;;;;2055675;28;44448;-64
2021/01/07 03:33:32;;;;;;;;;;;;;;;;;;2056153;28;44290;-64
2021/01/07 03:34:33;;;;;;;;;;;;;;;;;;2056128;28;44490;-64
2021/01/07 03:35:34;;;;;;;;;;;;;;;;;;2055611;28;44257;-64
2021/01/07 03:36:35;;;;;;;;;;;;;;;;;;2055563;28;44319;-64
2021/01/07 03:37:36;;;;;;;;;;;;;;;;;;2055552;28;44552;-64
2021/01/07 03:38:37;;;;;;;;;;;;;;;;;;2055685;28;45687;-64
2021/01/07 03:39:38;;;;;;;;;;;;;;;;;;2055446;28;45079;-64
2021/01/07 03:40:43;;;;;;;;;;;;;;;;;;2056080;28;44351;-61
2021/01/07 03:41:45;;;;;;;;;;;;;;;;;;2055910;28;44899;-64
2021/01/07 03:42:46;;;;;;;;;;;;;;;;;;2056331;28;46226;-61
2021/01/07 03:43:48;;;;;;;;;;;;;;;;;;2055737;28;45853;-61
2021/01/07 03:44:49;;;;;;;;;;;;;;;;;;2056058;28;45136;-60
2021/01/07 03:45:50;;;;;;;;;;;;;;;;;;2055382;28;41743;-61
2021/01/07 03:46:51;;;;;;;;;;;;;;;;;;2055903;28;44787;-61
2021/01/07 03:47:54;;;;;;;;;;;;;;;;;;2063933;28;44477;-62
2021/01/07 03:48:55;;;;;;;;;;;;;;;;;;2063756;28;43993;-60
2021/01/07 03:49:56;;;;;;;;;;;;;;;;;;2055443;28;44757;-62
2021/01/07 03:50:57;;;;;;;;;;;;;;;;;;2055864;28;44881;-62
2021/01/07 03:51:58;;;;;;;;;;;;;;;;;;2055945;28;44592;-61
2021/01/07 03:52:59;;;;;;;;;;;;;;;;;;2056058;28;44770;-62
2021/01/07 03:54:01;;;;;;;;;;;;;;;;;;2056001;28;44860;-60
2021/01/07 03:55:02;;;;;;;;;;;;;;;;;;2056024;28;44509;-62
2021/01/07 03:56:03;;;;;;;;;;;;;;;;;;2056082;28;44916;-62
2021/01/07 03:57:06;;;;;;;;;;;;;;;;;;2055187;28;44757;-62
2021/01/07 03:58:08;;;;;;;;;;;;;;;;;;2055576;28;44584;-62
2021/01/07 03:59:09;;;;;;;;;;;;;;;;;;2055447;28;44967;-62
2021/01/07 04:00:11;;;;;;;;;;;;;;;;;;2055530;28;42838;-62
2021/01/07 04:01:12;;;;;;;;;;;;;;;;;;2055194;28;44924;-62
2021/01/07 04:02:14;;;;;;;;;;;;;;;;;;2055436;28;45154;-62
2021/01/07 04:03:15;;;;;;;;;;;;;;;;;;2055311;28;45596;-62
2021/01/07 04:04:16;;;;;;;;;;;;;;;;;;2055783;28;44643;-63
2021/01/07 04:05:17;;;;;;;;;;;;;;;;;;2047846;28;44985;-63
2021/01/07 04:06:18;;;;;;;;;;;;;;;;;;2055409;28;44396;-62
2021/01/07 04:07:19;;;;;;;;;;;;;;;;;;2055057;28;45612;-62
2021/01/07 04:08:20;;;;;;;;;;;;;;;;;;2056175;28;45592;-62
2021/01/07 04:09:21;;;;;;;;;;;;;;;;;;2055356;28;44418;-62
2021/01/07 04:10:22;;;;;;;;;;;;;;;;;;2055976;28;45593;-62
2021/01/07 04:11:23;;;;;;;;;;;;;;;;;;2054836;28;44191;-62
2021/01/07 04:12:24;;;;;;;;;;;;;;;;;;2055342;28;45594;-62
2021/01/07 04:13:34;;;;;;;;;;;;;;;;;;2054886;28;44523;-62
2021/01/07 04:14:35;;;;;;;;;;;;;;;;;;2049398;28;43914;-59
2021/01/07 04:15:36;;;;;;;;;;;;;;;;;;2056225;28;45597;-62
2021/01/07 04:16:37;;;;;;;;;;;;;;;;;;2056443;28;46666;-61
2021/01/07 04:17:38;;;;;;;;;;;;;;;;;;2056103;28;42817;-61
2021/01/07 04:18:39;;;;;;;;;;;;;;;;;;2057364;28;44199;-61
2021/01/07 04:19:41;;;;;;;;;;;;;;;;;;2056469;28;45121;-61
2021/01/07 04:20:42;;;;;;;;;;;;;;;;;;2057191;28;44030;-61
2021/01/07 04:21:46;;;;;;;;;;;;;;;;;;2056433;28;45317;-61
2021/01/07 04:22:47;;;;;;;;;;;;;;;;;;2056347;28;47941;-61
2021/01/07 04:23:48;;;;;;;;;;;;;;;;;;2056198;28;44115;-61
2021/01/07 04:24:50;;;;;;;;;;;;;;;;;;2056606;28;44009;-62
2021/01/07 04:25:51;;;;;;;;;;;;;;;;;;2056159;28;46623;-63
2021/01/07 04:26:52;;;;;;;;;;;;;;;;;;2049290;28;44225;-60
2021/01/07 04:27:53;;;;;;;;;;;;;;;;;;2056278;28;46084;-63
2021/01/07 04:28:54;;;;;;;;;;;;;;;;;;2056360;28;45437;-62
2021/01/07 04:29:55;;;;;;;;;;;;;;;;;;2055925;28;45391;-61
2021/01/07 04:30:56;;;;;;;;;;;;;;;;;;2057534;28;44387;-62
2021/01/07 04:31:57;;;;;;;;;;;;;;;;;;2056727;28;45593;-62
2021/01/07 04:32:58;;;;;;;;;;;;;;;;;;2059464;28;45720;-60
2021/01/07 04:33:59;;;;;;;;;;;;;;;;;;2064628;28;44319;-62
2021/01/07 04:35:02;;;;;;;;;;;;;;;;;;2064440;28;44028;-62
2021/01/07 04:36:03;;;;;;;;;;;;;;;;;;2064039;28;42694;-62
2021/01/07 04:37:08;;;;;;;;;;;;;;;;;;2065053;28;42604;-60
2021/01/07 04:38:09;;;;;;;;;;;;;;;;;;2064452;28;45559;-62
2021/01/07 04:39:10;;;;;;;;;;;;;;;;;;2064123;28;44289;-60
2021/01/07 04:40:11;;;;;;;;;;;;;;;;;;2064079;28;44127;-61
2021/01/07 04:41:12;;;;;;;;;;;;;;;;;;2064377;28;47475;-60
2021/01/07 04:42:14;;;;;;;;;;;;;;;;;;2063832;28;45603;-60
2021/01/07 04:43:15;;;;;;;;;;;;;;;;;;2064965;28;45300;-60
2021/01/07 04:44:16;;;;;;;;;;;;;;;;;;2064605;28;44395;-61
2021/01/07 04:45:17;;;;;;;;;;;;;;;;;;2065106;28;45598;-61
2021/01/07 04:46:19;;;;;;;;;;;;;;;;;;2064791;28;44624;-60
2021/01/07 04:47:21;;;;;;;;;;;;;;;;;;2064411;28;43515;-61
2021/01/07 04:48:22;;;;;;;;;;;;;;;;;;2064345;28;44187;-61
2021/01/07 04:49:23;;;;;;;;;;;;;;;;;;2064677;28;44922;-62
2021/01/07 04:50:24;;;;;;;;;;;;;;;;;;2064238;28;44647;-62
2021/01/07 04:51:25;;;;;;;;;;;;;;;;;;2064443;28;43784;-61
2021/01/07 04:52:26;;;;;;;;;;;;;;;;;;2064344;28;46175;-62
2021/01/07 04:53:27;;;;;;;;;;;;;;;;;;2064774;28;44777;-60
2021/01/07 04:54:28;;;;;;;;;;;;;;;;;;2064907;28;44682;-61
2021/01/07 04:55:30;;;;;;;;;;;;;;;;;;2064783;28;46055;-61
2021/01/07 04:56:31;;;;;;;;;;;;;;;;;;2065190;28;42928;-61
2021/01/07 04:57:32;;;;;;;;;;;;;;;;;;2064115;28;44785;-61
2021/01/07 04:58:33;;;;;;;;;;;;;;;;;;2064121;28;44871;-61
2021/01/07 04:59:34;;;;;;;;;;;;;;;;;;2063697;28;44780;-61
2021/01/07 05:00:36;;;;;;;;;;;;;;;;;;2064618;28;45865;-61
2021/01/07 05:01:37;;;;;;;;;;;;;;;;;;2064056;28;43210;-61
2021/01/07 05:02:39;;;;;;;;;;;;;;;;;;2064296;28;44436;-61
2021/01/07 05:03:43;;;;;;;;;;;;;;;;;;2055842;28;44882;-61
2021/01/07 05:04:45;;;;;;;;;;;;;;;;;;2064341;28;46504;-61
2021/01/07 05:05:51;;;;;;;;;;;;;;;;;;2064646;28;43494;-61
2021/01/07 05:06:52;;;;;;;;;;;;;;;;;;2064880;28;45954;-61
2021/01/07 05:07:54;;;;;;;;;;;;;;;;;;2064456;28;44773;-61
2021/01/07 05:09:04;;;;;;;;;;;;;;;;;;2064746;28;44865;-61
2021/01/07 05:10:06;;;;;;;;;;;;;;;;;;2065105;28;44590;-62
2021/01/07 05:11:08;;;;;;;;;;;;;;;;;;2065638;28;44872;-61
2021/01/07 05:12:10;;;;;;;;;;;;;;;;;;2064053;28;45654;-61
2021/01/07 05:13:12;;;;;;;;;;;;;;;;;;2064354;28;44275;-61
2021/01/07 05:14:13;;;;;;;;;;;;;;;;;;2064301;28;44400;-61
2021/01/07 05:15:15;;;;;;;;;;;;;;;;;;2064331;28;43425;-61
2021/01/07 05:16:21;;;;;;;;;;;;;;;;;;2063935;28;44037;-62
2021/01/07 05:17:22;;;;;;;;;;;;;;;;;;2064291;28;44303;-62
2021/01/07 05:18:24;;;;;;;;;;;;;;;;;;2064030;28;45494;-62
2021/01/07 05:19:25;;;;;;;;;;;;;;;;;;2064098;28;45400;-62
2021/01/07 05:20:26;;;;;;;;;;;;;;;;;;2064536;28;44230;-62
2021/01/07 05:21:28;;;;;;;;;;;;;;;;;;2064844;28;45409;-63
2021/01/07 05:22:36;;;;;;;;;;;;;;;;;;2064756;28;41178;-62
2021/01/07 05:23:38;;;;;;;;;;;;;;;;;;2064192;28;45615;-63
2021/01/07 05:24:40;;;;;;;;;;;;;;;;;;2064376;28;43869;-62
2021/01/07 05:25:41;;;;;;;;;;;;;;;;;;2064604;28;45074;-62
2021/01/07 05:26:43;;;;;;;;;;;;;;;;;;2064477;28;44009;-62
2021/01/07 05:27:45;;;;;;;;;;;;;;;;;;2064161;28;45542;-62
2021/01/07 05:28:47;;;;;;;;;;;;;;;;;;2063773;28;43464;-62
2021/01/07 05:29:49;;;;;;;;;;;;;;;;;;2063869;28;46422;-61
2021/01/07 05:30:50;;;;;;;;;;;;;;;;;;2055968;28;43761;-62
2021/01/07 05:31:52;;;;;;;;;;;;;;;;;;2056120;28;44317;-61
2021/01/07 05:32:58;;;;;;;;;;;;;;;;;;2064007;28;45485;-62
2021/01/07 05:33:59;;;;;;;;;;;;;;;;;;2064797;28;44134;-62
2021/01/07 05:35:01;;;;;;;;;;;;;;;;;;2064550;28;44124;-62
2021/01/07 05:36:15;;;;;;;;;;;;;;;;;;2064758;28;44078;-62
2021/01/07 05:37:17;;;;;;;;;;;;;;;;;;2064681;28;44493;-62
2021/01/07 05:38:18;;;;;;;;;;;;;;;;;;2064552;28;45221;-61
2021/01/07 05:39:20;;;;;;;;;;;;;;;;;;2064539;28;45895;-61
2021/01/07 05:40:22;;;;;;;;;;;;;;;;;;2064646;28;44253;-62
2021/01/07 05:41:24;;;;;;;;;;;;;;;;;;2064573;28;44268;-61
2021/01/07 05:42:25;;;;;;;;;;;;;;;;;;2064677;28;46835;-62
2021/01/07 05:43:26;;;;;;;;;;;;;;;;;;2064541;28;44375;-62
2021/01/07 05:44:31;;;;;;;;;;;;;;;;;;2065030;28;45146;-62
2021/01/07 05:45:35;;;;;;;;;;;;;;;;;;2064650;28;44003;-61
2021/01/07 05:46:36;;;;;;;;;;;;;;;;;;2064480;28;45709;-62
2021/01/07 05:47:41;;;;;;;;;;;;;;;;;;2063883;28;44373;-62
2021/01/07 05:48:44;;;;;;;;;;;;;;;;;;2063657;28;45571;-63
2021/01/07 05:49:45;;;;;;;;;;;;;;;;;;2064536;28;44284;-62
2021/01/07 05:50:47;;;;;;;;;;;;;;;;;;2064922;28;43789;-62
2021/01/07 05:51:49;;;;;;;;;;;;;;;;;;2063933;28;44212;-62
2021/01/07 05:52:50;;;;;;;;;;;;;;;;;;2064035;28;43306;-64
2021/01/07 05:53:52;;;;;;;;;;;;;;;;;;2063833;28;43096;-62
2021/01/07 05:54:54;;;;;;;;;;;;;;;;;;2064884;28;45667;-63
2021/01/07 05:55:55;;;;;;;;;;;;;;;;;;2064554;28;43158;-62
2021/01/07 05:56:57;;;;;;;;;;;;;;;;;;2064048;28;44894;-63
2021/01/07 05:57:59;;;;;;;;;;;;;;;;;;2063845;28;46031;-62
2021/01/07 05:59:00;;;;;;;;;;;;;;;;;;2064216;28;43587;-62
2021/01/07 06:00:03;;;;;;;;;;;;;;;;;;2064369;28;45763;-62
2021/01/07 06:01:04;;;;;;;;;;;;;;;;;;2064550;28;44872;-62
2021/01/07 06:02:08;;;;;;;;;;;;;;;;;;2063643;28;46053;-62
2021/01/07 06:03:13;;;;;;;;;;;;;;;;;;2063845;28;46067;-62
2021/01/07 06:04:14;;;;;;;;;;;;;;;;;;2064407;28;43406;-61
2021/01/07 06:05:15;;;;;;;;;;;;;;;;;;2063916;28;45855;-62
2021/01/07 06:06:17;;;;;;;;;;;;;;;;;;2063761;28;42999;-62
2021/01/07 06:07:18;;;;;;;;;;;;;;;;;;2064508;28;46227;-61
2021/01/07 06:08:19;;;;;;;;;;;;;;;;;;2063594;28;44775;-62
2021/01/07 06:09:22;;;;;;;;;;;;;;;;;;2063731;28;44957;-61
2021/01/07 06:10:23;;;;;;;;;;;;;;;;;;2064297;28;46405;-61
2021/01/07 06:11:25;;;;;;;;;;;;;;;;;;2064608;28;44781;-61
2021/01/07 06:12:26;;;;;;;;;;;;;;;;;;2063945;28;45768;-61
2021/01/07 06:13:27;;;;;;;;;;;;;;;;;;2064526;28;44183;-61
2021/01/07 06:14:28;;;;;;;;;;;;;;;;;;2064249;28;46074;-61
2021/01/07 06:15:30;;;;;;;;;;;;;;;;;;2064533;28;44695;-61
2021/01/07 06:16:32;;;;;;;;;;;;;;;;;;2064258;28;47134;-61
2021/01/07 06:17:33;;;;;;;;;;;;;;;;;;2064851;28;44562;-60
2021/01/07 06:18:34;;;;;;;;;;;;;;;;;;2064107;28;45910;-60
2021/01/07 06:19:36;;;;;;;;;;;;;;;;;;2064254;28;42760;-60
2021/01/07 06:20:37;;;;;;;;;;;;;;;;;;2063635;28;44295;-60
2021/01/07 06:21:46;;;;;;;;;;;;;;;;;;2055881;28;45196;-60
2021/01/07 06:22:49;;;;;;;;;;;;;;;;;;2056740;28;44311;-60
2021/01/07 06:23:50;;;;;;;;;;;;;;;;;;2063861;28;44308;-60
2021/01/07 06:24:52;;;;;;;;;;;;;;;;;;2064170;28;45271;-60
2021/01/07 06:26:13;;;;;;;;;;;;;;;;;;2064465;28;46166;-60
2021/01/07 06:27:19;;;;;;;;;;;;;;;;;;2064218;28;43007;-61
2021/01/07 06:28:27;;;;;;;;;;;;;;;;;;2064142;28;44292;-61
2021/01/07 06:29:28;;;;;;;;;;;;;;;;;;2064259;28;46302;-61
2021/01/07 06:30:29;;;;;;;;;;;;;;;;;;2064075;28;44323;-62
2021/01/07 06:31:33;;;;;;;;;;;;;;;;;;2063874;28;44087;-62
2021/01/07 06:32:34;;;;;;;;;;;;;;;;;;2055844;28;44272;-62
2021/01/07 06:33:36;;;;;;;;;;;;;;;;;;2048238;28;45311;-62
2021/01/07 06:34:39;;;;;;;;;;;;;;;;;;2055537;28;43177;-62
2021/01/07 06:35:41;;;;;;;;;;;;;;;;;;2056336;28;44518;-62
2021/01/07 06:36:45;;;;;;;;;;;;;;;;;;2055376;28;44314;-62
2021/01/07 06:37:51;;;;;;;;;;;;;;;;;;2056206;28;43980;-62
2021/01/07 06:38:52;;;;;;;;;;;;;;;;;;2055424;28;42591;-62
2021/01/07 06:39:56;;;;;;;;;;;;;;;;;;2055778;28;44024;-61
2021/01/07 06:40:57;;;;;;;;;;;;;;;;;;2056147;28;44373;-62
2021/01/07 06:41:58;;;;;;;;;;;;;;;;;;2056045;28;45790;-61
2021/01/07 06:42:59;;;;;;;;;;;;;;;;;;2055447;28;42171;-60
2021/01/07 06:44:05;;;;;;;;;;;;;;;;;;2055555;28;45589;-60
2021/01/07 06:45:07;;;;;;;;;;;;;;;;;;2055840;28;45278;-60
2021/01/07 06:46:08;;;;;;;;;;;;;;;;;;2063696;28;44146;-61
2021/01/07 06:47:16;;;;;;;;;;;;;;;;;;2063747;28;43060;-61
2021/01/07 06:48:43;;;;;;;;;;;;;;;;;;2055992;28;45583;-61
2021/01/07 06:49:45;;;;;;;;;;;;;;;;;;2060275;28;44283;-62
2021/01/07 06:50:49;;;;;;;;;;;;;;;;;;2056284;28;44091;-62
2021/01/07 06:51:57;;;;;;;;;;;;;;;;;;2055915;28;45556;-60
2021/01/07 06:53:02;;;;;;;;;;;;;;;;;;2056342;28;44295;-61
2021/01/07 06:54:03;;;;;;;;;;;;;;;;;;2055896;28;45682;-60
2021/01/07 06:55:06;;;;;;;;;;;;;;;;;;2056229;28;44257;-61
2021/01/07 06:56:13;;;;;;;;;;;;;;;;;;2055931;28;44282;-61
2021/01/07 06:57:15;;;;;;;;;;;;;;;;;;2056171;28;46600;-60
2021/01/07 06:58:18;;;;;;;;;;;;;;;;;;2055780;28;44423;-60
2021/01/07 06:59:23;;;;;;;;;;;;;;;;;;2055901;28;44284;-60
2021/01/07 07:00:27;;;;;;;;;;;;;;;;;;2055487;28;45721;-60
2021/01/07 07:01:28;;;;;;;;;;;;;;;;;;2055641;28;44309;-61
2021/01/07 07:02:29;;;;;;;;;;;;;;;;;;2055720;28;45537;-60